Portada
METAR-TAF:

METAR-TAF

Aeropuertos :

Aeropuerto Internacional José Tadeo Monagas

Maturín, Venezuela

latitud: 09-45N, longitud: 063-11W, altitud: 65 m

Observación

El informe se hizo hace 1 hora y 10 minutos, a las 01:03 UTC
Viento 4 kt del este-noreste
Temperatura 26°C
Humedad 100%
Presión 1014 hPa

METAR: SVMT 230103Z AUTO 07004KT NCD 26/26 Q1014

Hora: 22:13 (02:13 UTC)


TAF: falta

Observaciones y pronósticos meteorológicos de más de 4000 aeropuertos (mensajes METAR y TAF).

Los puntos amarillos y rojos representan las estaciones disponibles.

Ponga el ratón en el punto deseado para ver el nombre de la estación.

Haga clic para ver las observaciones y los pronósticos meteorológicos.

Para cambiar el mapa : haga clic en los botones verdes con una cruz de color negro para hacer un zoom, en el botón verde con un guión para alejar o en las flechas verdes para mapas adyacentes.


METAR-TAF: